Latest Weather Observations for Bankstown

IDN60901

Issued at 3:41 pm EDT Thursday 11 February 2016 (issued every 10 minutes, with the page automatically refreshed every 10 minutes)

About weather observations | Map of Sydney area stations | Latest observations for Sydney area | Other Formats
Station Details ID: 066137 Name: BANKSTOWN AIRPORT AWS Lat: -33.92 Lon: 150.99 Height: 6.5 m
Data from the previous 72 hours. | See also: Recent months at Bankstown
Date/Time
EDT
Tmp

°C
App
Tmp
°C
Dew
Point
°C
Rel
Hum
%
Delta-T

°C
Wind Press
QNH
hPa
Press
MSL
hPa
Rain
since
9 am
mm
Dir
 
Spd
km/h
Gust
km/h
Spd
kts
Gust
kts
11/03:30pm 28.0 25.4 12.0 37 9.3 ENE 17 26 9 14 1013.4 1013.4 0.0
11/03:00pm 29.0 26.5 13.6 38 9.2 ENE 19 26 10 14 1013.6 1013.7 0.0
11/02:56pm 28.9 26.8 13.6 39 9.1 ENE 17 26 9 14 1013.7 1013.7 0.0
11/02:55pm 28.9 26.8 13.6 39 9.1 ENE 17 26 9 14 1013.7 - 0.0
11/02:39pm 28.4 25.9 12.3 37 9.4 ENE 17 24 9 13 1013.8 1013.8 0.0
11/02:38pm 28.4 25.9 12.3 37 9.4 ENE 17 24 9 13 1013.8 - 0.0
11/02:30pm 28.6 26.7 12.9 38 9.2 NE 15 22 8 12 1013.9 1013.9 0.0
11/02:00pm 28.7 26.8 13.0 38 9.3 NE 15 28 8 15 1014.2 1014.2 0.0
11/01:30pm 28.3 25.8 12.2 37 9.4 NE 17 28 9 15 1014.4 - 0.0
11/01:00pm 28.0 26.0 13.9 42 8.4 ENE 17 24 9 13 1014.7 1014.7 0.0
11/12:30pm 27.9 26.9 13.4 40 8.6 NE 11 24 6 13 1014.9 - 0.0
11/12:00pm 27.5 26.1 13.4 41 8.3 NE 13 20 7 11 1015.2 1015.2 0.0
11/11:30am 26.5 25.2 13.6 45 7.6 NE 13 22 7 12 1015.3 1015.3 0.0
11/11:00am 26.3 25.2 14.4 48 7.1 NNE 13 20 7 11 1015.4 1015.5 0.0
11/10:30am 27.5 25.4 14.8 45 7.7 NE 19 24 10 13 1015.4 - 0.0
11/10:00am 25.5 24.5 14.6 51 6.5 ENE 13 24 7 13 1015.5 1015.5 0.0
11/09:30am 24.2 24.8 15.9 59 5.0 W 7 9 4 5 1015.7 1015.7 0.0
11/09:06am 23.1 24.6 15.7 63 4.5 WNW 2 7 1 4 1015.8 1015.8 0.0
11/09:05am 23.1 24.6 15.7 63 4.5 WNW 2 7 1 4 1015.8 - 0.0
11/09:00am 23.2 24.7 15.8 63 4.5 WSW 2 7 1 4 1015.8 1015.8 0.0
11/08:47am 22.5 24.2 16.1 67 3.9 NW 2 7 1 4 1015.8 1015.8 0.0
11/08:46am 22.5 24.2 16.1 67 3.9 NW 2 7 1 4 1015.8 - 0.0
11/08:30am 21.9 24.0 16.2 70 3.4 CALM 0 0 0 0 1015.7 1015.7 0.0
11/08:00am 20.4 22.5 16.2 77 2.5 CALM 0 0 0 0 1015.5 1015.5 0.0
11/07:30am 19.4 21.5 16.2 82 1.9 CALM 0 0 0 0 1015.0 - 0.0
11/07:24am 19.0 21.0 16.0 83 1.8 CALM 0 0 0 0 1014.9 - 0.0
11/07:00am 17.8 19.5 15.2 85 1.5 CALM 0 0 0 0 1014.5 1014.5 0.0
11/06:30am 17.9 19.6 15.3 85 1.5 CALM 0 0 0 0 1014.0 1014.0 0.0
11/06:00am 17.6 19.2 15.0 85 1.5 CALM 0 0 0 0 1014.0 1014.0 0.0
11/05:30am 17.8 19.5 15.1 84 1.6 CALM 0 0 0 0 1013.6 - 0.0
11/05:00am 18.2 20.0 15.6 85 1.5 CALM 0 0 0 0 1013.3 1013.3 0.0
11/04:30am 18.3 20.2 15.7 85 1.5 CALM 0 0 0 0 1013.1 - 0.0
11/04:03am 18.8 20.8 16.0 84 1.7 CALM 0 0 0 0 1013.1 - 0.0
11/04:00am 18.7 20.7 15.9 84 1.7 CALM 0 0 0 0 1013.1 1013.1 0.0
11/03:30am 18.9 20.7 15.6 81 1.9 CALM 0 0 0 0 1013.1 - 0.0
11/03:00am 19.0 20.7 15.3 79 2.2 CALM 0 0 0 0 1013.3 1013.3 0.0
11/02:30am 19.3 21.0 15.2 77 2.4 CALM 0 0 0 0 1013.6 - 0.0
11/02:00am 19.5 21.2 15.2 76 2.5 CALM 0 0 0 0 1013.6 1013.6 0.0
11/01:30am 19.7 21.4 15.1 75 2.7 CALM 0 0 0 0 1013.7 1013.7 0.0
11/01:00am 20.4 21.9 14.7 70 3.3 CALM 0 0 0 0 1013.8 1013.8 0.0
11/12:30am 20.8 22.0 14.9 69 3.5 N 2 6 1 3 1014.0 1014.0 0.0
11/12:00am 22.2 23.9 15.1 64 4.2 CALM 0 0 0 0 1014.3 1014.3 0.0
 
Date/Time
EDT
Tmp

°C
App
Tmp
°C
Dew
Point
°C
Rel
Hum
%
Delta-T

°C
Wind Press
QNH
hPa
Press
MSL
hPa
Rain
since
9 am
mm
Dir
 
Spd
km/h
Gust
km/h
Spd
kts
Gust
kts
10/11:30pm 22.5 23.0 15.1 63 4.4 N 6 9 3 5 1014.0 - 0.0
10/11:00pm 22.8 22.7 14.9 61 4.7 NNE 9 15 5 8 1014.2 1014.2 0.0
10/10:30pm 23.0 22.8 14.8 60 4.9 NNE 9 19 5 10 1014.3 - 0.0
10/10:00pm 23.1 22.6 14.9 60 4.9 NNE 11 17 6 9 1014.0 1014.0 0.0
10/09:30pm 23.5 22.7 15.0 59 5.1 NE 13 22 7 12 1013.7 - 0.0
10/09:00pm 23.7 22.7 15.7 61 4.8 NE 15 24 8 13 1013.5 1013.5 0.0
10/08:30pm 24.0 23.9 16.0 61 4.9 NE 11 22 6 12 1013.3 - 0.0
10/08:00pm 24.6 23.8 16.1 59 5.2 NE 15 22 8 12 1013.0 1013.0 0.0
10/07:30pm 25.3 23.8 15.3 54 6.0 ENE 17 28 9 15 1012.4 1012.4 0.0
10/07:00pm 26.1 24.0 14.6 49 6.9 NE 19 28 10 15 1012.1 1012.1 0.0
10/06:30pm 26.9 25.2 14.6 46 7.4 ENE 17 26 9 14 1011.6 - 0.0
10/06:00pm 28.1 25.8 14.7 44 8.1 ENE 20 35 11 19 1011.5 1011.5 0.0
10/05:30pm 28.5 26.5 15.4 45 8.0 NE 20 30 11 16 1011.4 - 0.0
10/05:00pm 28.5 24.9 14.3 41 8.5 E 26 37 14 20 1011.2 1011.2 0.0
10/04:30pm 29.2 26.0 14.2 40 9.0 ENE 24 32 13 17 1011.3 - 0.0
10/04:00pm 29.4 26.1 12.8 36 9.8 ENE 22 28 12 15 1011.5 1011.5 0.0
10/03:30pm 29.6 27.4 13.4 37 9.6 ENE 17 26 9 14 1011.9 - 0.0
10/03:00pm 29.3 26.5 12.7 36 9.8 NE 19 28 10 15 1012.1 1012.1 0.0
10/02:30pm 29.3 28.4 11.4 33 10.3 ENE 7 15 4 8 1012.5 - 0.0
10/02:00pm 29.2 28.0 11.7 34 10.1 N 9 19 5 10 1013.1 1013.1 0.0
10/01:30pm 28.2 25.9 11.7 36 9.5 NNE 15 26 8 14 1013.5 - 0.0
10/01:00pm 27.8 26.7 13.0 40 8.7 N 11 17 6 9 1014.1 1014.1 0.0
10/12:30pm 26.9 26.6 13.3 43 8.0 N 7 17 4 9 1014.7 1014.7 0.0
10/12:00pm 26.6 25.8 14.0 46 7.5 NNW 11 20 6 11 1015.1 1015.1 0.0
10/11:30am 25.9 24.3 12.7 44 7.7 NNE 13 20 7 11 1015.5 - 0.0
10/11:00am 25.4 24.0 13.3 47 7.1 N 13 19 7 10 1016.0 1016.1 0.0
10/10:30am 25.2 24.7 14.9 52 6.2 NNW 11 17 6 9 1016.3 - 0.0
10/10:00am 23.8 22.7 15.3 59 5.1 NNW 15 17 8 9 1016.4 1016.4 0.0
10/09:30am 23.2 23.4 15.8 63 4.5 WNW 9 20 5 11 1016.6 1016.6 0.0
10/09:00am 22.1 22.7 15.7 67 3.8 WNW 7 11 4 6 1016.7 1016.7 0.0
10/08:30am 21.2 21.9 15.5 70 3.4 WNW 6 9 3 5 1016.7 - 0.0
10/08:00am 20.3 21.8 15.7 75 2.7 ESE 2 6 1 3 1016.7 1016.7 0.0
10/07:30am 19.3 21.4 16.3 83 1.8 CALM 0 0 0 0 1016.6 - 0.0
10/07:00am 18.2 20.0 15.6 85 1.5 CALM 0 0 0 0 1016.5 1016.5 0.0
10/06:30am 18.3 19.0 15.7 85 1.5 ESE 6 7 3 4 1016.3 - 0.0
10/06:04am 17.8 19.6 15.4 86 1.4 CALM 0 0 0 0 1016.1 1016.1 0.0
10/06:03am 17.8 19.6 15.4 86 1.4 CALM 0 0 0 0 1016.1 - 0.0
10/06:00am 17.7 19.4 15.1 85 1.5 CALM 0 0 0 0 1016.1 1016.1 0.0
10/05:43am 17.8 19.6 15.4 86 1.4 CALM 0 0 0 0 1016.1 1016.1 0.0
10/05:42am 17.8 19.6 15.4 86 1.4 CALM 0 0 0 0 1016.1 - 0.0
10/05:30am 17.6 19.2 15.0 85 1.5 CALM 0 0 0 0 1016.1 - 0.0
10/05:00am 17.7 19.4 15.1 85 1.5 CALM 0 0 0 0 1016.0 1016.0 0.0
10/04:30am 17.9 19.6 15.3 85 1.5 CALM 0 0 0 0 1016.0 - 0.0
10/04:00am 17.9 19.6 15.2 84 1.6 CALM 0 0 0 0 1016.1 1016.1 0.0
10/03:30am 18.3 20.0 15.2 82 1.8 CALM 0 0 0 0 1016.2 - 0.0
10/03:00am 18.8 20.6 15.5 81 1.9 CALM 0 0 0 0 1016.6 1016.7 0.0
10/02:30am 18.9 20.8 15.8 82 1.8 CALM 0 0 0 0 1016.9 - 0.0
10/02:00am 19.0 20.8 15.5 80 2.1 CALM 0 0 0 0 1017.3 1017.3 0.0
10/01:30am 19.3 21.1 15.6 79 2.2 CALM 0 0 0 0 1017.4 - 0.0
10/01:00am 19.6 21.6 15.9 79 2.2 CALM 0 0 0 0 1017.9 1017.9 0.0
10/12:30am 19.8 21.8 16.1 79 2.2 CALM 0 0 0 0 1018.3 - 0.0
10/12:00am 19.6 21.5 15.7 78 2.3 CALM 0 0 0 0 1018.5 1018.5 0.0
 
Date/Time
EDT
Tmp

°C
App
Tmp
°C
Dew
Point
°C
Rel
Hum
%
Delta-T

°C
Wind Press
QNH
hPa
Press
MSL
hPa
Rain
since
9 am
mm
Dir
 
Spd
km/h
Gust
km/h
Spd
kts
Gust
kts
09/11:30pm 19.9 21.7 15.5 76 2.6 CALM 0 0 0 0 1018.8 - 0.0
09/11:00pm 20.0 22.0 16.0 78 2.4 CALM 0 0 0 0 1019.1 1019.2 0.0
09/10:30pm 20.1 21.3 15.9 77 2.5 ESE 4 6 2 3 1019.3 1019.3 0.0
09/10:00pm 22.0 22.4 15.4 66 3.9 ESE 7 9 4 5 1019.4 1019.3 0.0
09/09:30pm 22.5 22.6 15.6 65 4.1 SE 9 11 5 6 1019.3 - 0.0
09/09:00pm 22.8 22.5 15.4 63 4.4 ESE 11 13 6 7 1019.2 1019.1 0.0
09/08:30pm 23.0 21.9 15.3 62 4.6 SE 15 19 8 10 1019.0 - 0.0
09/08:00pm 23.2 21.7 15.3 61 4.7 ESE 17 20 9 11 1018.9 1018.9 0.0
09/07:30pm 23.9 21.6 14.0 54 5.8 ESE 19 22 10 12 1018.8 - 0.0
09/07:00pm 24.5 21.5 11.8 45 7.2 ESE 19 24 10 13 1018.6 1018.6 0.0
09/06:30pm 25.0 22.1 12.2 44 7.3 E 19 24 10 13 1018.3 1018.3 0.0
09/06:00pm 25.4 22.6 13.3 47 7.1 SE 20 26 11 14 1018.2 1018.2 0.0
09/05:30pm 25.9 22.3 12.0 42 8.0 SE 22 28 12 15 1018.2 - 0.0
09/05:00pm 26.2 22.8 12.6 43 7.9 ESE 22 28 12 15 1018.3 1018.3 0.0
09/04:30pm 26.1 22.6 12.2 42 8.0 E 22 30 12 16 1018.5 - 0.0
09/04:00pm 26.0 22.1 12.1 42 8.0 ESE 24 30 13 16 1018.8 1018.8 0.0
09/03:30pm 26.3 22.4 12.0 41 8.2 ESE 24 32 13 17 1019.1 1019.1 0.0
09/03:00pm 26.3 22.6 12.7 43 7.9 ESE 24 32 13 17 1019.4 1019.5 0.0
09/02:30pm 26.0 22.2 12.5 43 7.8 SE 24 33 13 18 1019.7 - 0.0
09/02:00pm 26.5 23.1 13.6 45 7.6 ESE 24 32 13 17 1019.9 1019.9 0.0
09/01:30pm 26.7 23.3 13.8 45 7.6 SE 24 32 13 17 1020.3 - 0.0
09/01:00pm 26.8 23.2 13.2 43 8.0 SE 24 32 13 17 1020.5 1020.5 0.0
09/12:30pm 25.6 22.4 13.1 46 7.3 SE 22 33 12 18 1020.7 - 0.0
09/12:00pm 26.5 22.7 13.6 45 7.6 SE 26 33 14 18 1020.9 1020.9 0.0
09/11:30am 26.4 22.5 14.5 48 7.1 SE 28 33 15 18 1021.0 - 0.0
09/11:00am 26.0 23.9 16.3 55 5.9 SSE 22 33 12 18 1021.1 1021.1 0.0
09/10:30am 25.2 22.7 14.0 49 6.6 SE 20 28 11 15 1021.1 - 0.0
09/10:00am 25.0 21.8 15.3 55 5.8 SE 26 33 14 18 1021.2 1021.2 0.0
09/09:30am 24.0 21.4 15.0 57 5.4 SE 22 32 12 17 1021.0 - 0.0
09/09:00am 23.7 23.5 16.7 65 4.3 S 13 17 7 9 1021.0 1021.0 0.0
09/08:30am 22.2 22.9 17.1 73 3.1 SW 9 11 5 6 1020.8 1020.8 0.0
09/08:00am 21.0 22.0 16.8 77 2.5 SSW 7 11 4 6 1020.5 1020.5 0.0
09/07:30am 19.7 21.4 16.3 81 2.0 SSW 2 6 1 3 1020.2 - 0.0
09/07:00am 19.2 19.8 15.9 81 2.0 SSW 7 9 4 5 1019.9 1019.9 0.0
09/06:30am 18.5 19.9 15.4 82 1.8 SSW 2 6 1 3 1019.6 - 0.0
09/06:00am 18.6 19.3 15.5 82 1.8 SSW 6 7 3 4 1019.3 1019.3 0.0
09/05:30am 18.6 19.3 15.5 82 1.8 SSW 6 7 3 4 1018.9 - 0.0
09/05:00am 18.9 20.4 15.8 82 1.8 SSW 2 7 1 4 1018.8 1018.8 0.0
09/04:30am 19.0 20.9 15.7 81 2.0 CALM 0 0 0 0 1018.7 - 0.0
09/04:00am 19.1 19.6 15.6 80 2.1 SSW 7 9 4 5 1018.8 1018.8 0.0
09/03:30am 19.7 20.2 16.5 82 1.9 SSW 9 13 5 7 1018.9 - 0.0
09/03:00am 19.6 20.5 16.1 80 2.1 SSW 6 9 3 5 1018.8 1018.9 0.0
09/02:30am 19.7 20.4 16.2 80 2.1 SSW 7 11 4 6 1019.1 - 0.0
09/02:00am 19.9 20.9 16.3 80 2.2 S 6 11 3 6 1019.2 1019.2 0.0
09/01:30am 20.0 21.0 16.4 80 2.2 S 6 7 3 4 1019.5 - 0.0
09/01:00am 20.2 21.3 16.6 80 2.2 S 6 7 3 4 - 1019.7 0.0
09/12:30am 20.2 22.4 16.6 80 2.2 CALM 0 0 0 0 1019.7 - 0.0
09/12:00am 20.3 22.6 16.7 80 2.2 CALM 0 0 0 0 1019.8 1019.8 0.0
 
Date/Time
EDT
Tmp

°C
App
Tmp
°C
Dew
Point
°C
Rel
Hum
%
Delta-T

°C
Wind Press
QNH
hPa
Press
MSL
hPa
Rain
since
9 am
mm
Dir
 
Spd
km/h
Gust
km/h
Spd
kts
Gust
kts
08/11:30pm 20.6 22.9 16.8 79 2.3 CALM 0 2 0 1 1019.8 1019.7 0.0
08/11:00pm 20.7 23.1 16.9 79 2.3 CALM 0 0 0 0 1019.7 1019.7 0.0
08/10:30pm 20.8 22.3 16.6 77 2.5 SSW 4 7 2 4 1019.7 - 0.0
08/10:00pm 21.6 22.5 16.6 73 3.0 S 7 9 4 5 1019.6 1019.5 0.0
08/09:30pm 22.9 23.2 17.1 70 3.6 SE 11 15 6 8 1019.1 1019.1 0.0
08/09:00pm 23.2 23.5 17.0 68 3.8 E 11 15 6 8 1018.7 1018.7 0.0
08/08:30pm 23.5 22.6 16.8 66 4.1 ESE 17 19 9 10 1018.5 - 0.0
08/08:01pm 24.1 22.7 15.6 59 5.1 SE 17 20 9 11 1018.3 - 0.0
08/08:00pm 24.1 22.7 15.6 59 5.1 ESE 17 20 9 11 1018.3 1018.3 0.0
08/07:30pm 24.9 22.8 13.5 49 6.7 ESE 17 20 9 11 1018.0 1018.0 0.0
08/07:00pm 25.5 23.0 13.4 47 7.1 ESE 19 24 10 13 1017.6 1017.6 0.0
08/06:30pm 25.9 23.3 13.1 45 7.5 ESE 19 28 10 15 1017.2 1017.2 0.0
08/06:00pm 26.6 23.7 13.0 43 7.9 ESE 20 28 11 15 1017.3 1017.3 0.0
08/05:30pm 27.3 24.2 12.1 39 8.8 ESE 20 30 11 16 1017.2 1017.2 0.0
08/05:00pm 27.5 23.8 10.2 34 9.7 SE 20 28 11 15 1017.4 1017.4 0.0
08/04:30pm 27.4 24.2 11.8 38 9.0 ESE 20 30 11 16 1017.4 1017.4 0.0
08/04:00pm 27.9 24.6 11.5 36 9.4 ESE 20 28 11 15 1017.4 1017.4 0.0

Latest Capital City Observations: Canberra | Sydney | Melbourne | Brisbane | Adelaide | Perth | Hobart | Darwin

Other Formats:

Comma delimited format used in spreadsheet applications
http://www.bom.gov.au/fwo/IDN60901/IDN60901.94765.axf

JavaScript Object Notation format (JSON) in row-major order
http://www.bom.gov.au/fwo/IDN60901/IDN60901.94765.json